ADDS TAF Data INFO
IDs: Format: Raw Decoded Include METARs

Data at: 1847 UTC 16 Dec 2017

KJAX 161756Z VRB03KT 10SM FEW120 SCT250 16/00 A3027 RMK AO2 SLP249 T01610000 10161 20083 58015 $

KJAX 161740Z 1618/1718 03005KT P6SM FEW120 SCT250
  FM170100 00000KT P6SM SCT120 SCT250
  FM171500 12005KT P6SM FEW030 BKN150


KCRG 161753Z VRB04KT 10SM CLR 14/02 A3028 RMK AO2 SLP251 T01440017 10144 20100 58014

KCRG 161740Z 1618/1718 06008KT P6SM FEW120 SCT250
  FM170100 08002KT P6SM SCT120 SCT250
  FM171500 11005KT P6SM FEW030 BKN150


KVQQ 161750Z 01007KT 10SM CLR 15/00 A3027

KVQQ 161740Z 1618/1718 04005KT P6SM FEW120 SCT250
  FM162300 00000KT P6SM SCT100 BKN250
  FM171500 12005KT P6SM FEW030 BKN150


KGNV 161753Z VRB03KT 10SM CLR 15/03 A3028 RMK AO2 SLP253 T01500033 10156 20094 58016

KGNV 161740Z 1618/1718 06006KT P6SM FEW050 SCT250
  FM162300 07003KT P6SM SCT060 SCT100 BKN250
  FM170800 00000KT P6SM SCT008 BKN035
  FM171500 11004KT P6SM FEW020 BKN200


KSGJ 161756Z 36009KT 10SM CLR 14/07 A3028 RMK AO2 SLP253 T01390067 10144 20106 58009

KSGJ 161740Z 1618/1718 03008KT P6SM SCT050 BKN250
  FM170200 02003KT P6SM BKN250
  FM171500 08006KT P6SM SCT025 BKN200


KSSI 161753Z AUTO 36005KT 10SM CLR 13/00 A3028 RMK AO2 SLP254 T01330000 10133 20056 58012

KSSI 161740Z 1618/1718 06005KT P6SM SCT250
  FM170100 VRB02KT P6SM SCT250
  FM171400 07005KT P6SM BKN150